ADDS METAR Data INFO
IDs: Format: Raw Decoded Include TAF

Data at: 0106 UTC 21 Oct 2017

K5SM 210054Z AUTO 20013G34KT 170V230 10SM SCT075 SCT085 03/M05 A2989 RMK AO2
K5SM 210030Z AUTO 22014G29KT 160V230 10SM CLR 03/M06 A2990 RMK AO2
K5SM 210012Z AUTO 21013G29KT 170V230 10SM CLR 04/M05 A2990 RMK AO2
K5SM 202353Z AUTO 21014G29KT 10SM SCT080 05/M05 A2991 RMK AO2
K5SM 202330Z AUTO 22014G27KT 200V260 10SM BKN080 05/M05 A2992 RMK AO2
K5SM 202312Z AUTO 22014G31KT 10SM SCT070 05/M06 A2992 RMK AO2
K5SM 202252Z AUTO 22013G26KT 170V250 10SM SCT070 06/M06 A2992 RMK AO2
K5SM 202234Z AUTO 21016G30KT 10SM BKN070 06/M05 A2992 RMK AO2
K5SM 202211Z AUTO 22019G33KT 10SM SCT055 SCT075 07/M06 A2992 RMK AO2
K5SM 202153Z AUTO 23016G30KT 200V260 10SM SCT055 SCT065 07/M04 A2993 RMK AO2
K5SM 202129Z AUTO 21011G29KT 170V250 10SM SCT050 08/M05 A2993 RMK AO2
K5SM 202112Z AUTO 20010G33KT 10SM SCT050 SCT065 08/M04 A2994 RMK AO2
K5SM 202052Z AUTO 23015G35KT 200V300 10SM SCT050 SCT060 BKN075 08/M04 A2995 RMK AO2
K5SM 202029Z AUTO 23019G35KT 200V260 10SM BKN050 BKN060 BKN070 10/M03 A2995 RMK AO2
K5SM 202012Z AUTO 22015G29KT 10SM BKN048 OVC060 07/M04 A2996 RMK AO2
K5SM 201951Z AUTO 22022G35KT 10SM SCT048 SCT060 BKN070 08/M04 A2997 RMK AO2
K5SM 201934Z AUTO 24013G26KT 210V270 10SM SCT048 SCT060 08/M03 A2998 RMK AO2
K5SM 201912Z AUTO 21020G31KT 10SM SCT042 SCT050 09/M02 A2998 RMK AO2
K5SM 201853Z AUTO 22020G32KT 160V240 10SM SCT048 09/M03 A2999 RMK AO2
K5SM 201829Z AUTO 22021G35KT 200V290 10SM CLR 08/M03 A3000 RMK AO2
K5SM 201812Z AUTO 21017G29KT 180V250 10SM CLR 07/M02 A3000 RMK AO2
K5SM 201752Z AUTO 21012G24KT 140V260 10SM CLR 07/M01 A3001 RMK AO2
K5SM 201729Z AUTO 22012G18KT 180V250 10SM SCT028 SCT034 SCT040 06/M01 A3002 RMK AO2
K5SM 201711Z AUTO 21010G25KT 170V240 10SM SCT026 SCT031 06/M01 A3003 RMK AO2
K5SM 201651Z AUTO 20015G27KT 170V240 10SM CLR 06/M01 A3003 RMK AO2
K5SM 201634Z AUTO 20010G22KT 170V240 10SM CLR 06/M01 A3004 RMK AO2
K5SM 201611Z AUTO 21010G25KT 110V230 10SM SCT037 SCT046 05/M01 A3005 RMK AO2
K5SM 201553Z AUTO 20013G31KT 130V220 10SM BKN037 BKN046 05/M01 A3005 RMK AO2
K5SM 201529Z AUTO 23021G33KT 10SM SCT034 SCT040 03/M01 A3006 RMK AO2
K5SM 201511Z AUTO 22016G30KT 10SM CLR 03/M02 A3007 RMK AO2
K5SM 201451Z AUTO 22017G28KT 10SM CLR 02/M02 A3007 RMK AO2
K5SM 201434Z AUTO 22016G26KT 10SM CLR 02/M02 A3007 RMK AO2
K5SM 201411Z AUTO 22016G25KT 10SM SCT055 02/M02 A3007 RMK AO2
K5SM 201353Z AUTO 21014G26KT 10SM SCT055 02/M02 A3007 RMK AO2
K5SM 201329Z AUTO 21015G24KT 10SM SCT049 SCT065 BKN070 02/M02 A3008 RMK AO2
K5SM 201311Z AUTO 20010G23KT 10SM SCT047 OVC065 02/M02 A3009 RMK AO2
K5SM 201252Z AUTO 21012G20KT 10SM BKN047 BKN055 OVC065 02/M02 A3010 RMK AO2
K5SM 201229Z AUTO 21011G21KT 110V290 10SM SCT048 BKN050 BKN065 02/M02 A3010 RMK AO2
K5SM 201211Z AUTO 21012G21KT 10SM SCT050 OVC070 02/M02 A3011 RMK AO2
K5SM 201153Z AUTO 21011G18KT 180V250 10SM SCT043 BKN050 OVC070 02/M02 A3011 RMK AO2
K5SM 201129Z AUTO 21009G18KT 10SM BKN048 BKN060 OVC070 02/M02 A3013 RMK AO2
K5SM 201112Z AUTO 20011G20KT 170V230 10SM BKN050 OVC065 02/M02 A3013 RMK AO2
K5SM 201049Z AUTO 21011G17KT 10SM BKN055 OVC075 02/M02 A3014 RMK AO2
K5SM 201031Z AUTO 21009G16KT 10SM SCT035 BKN060 OVC070 02/M02 A3014 RMK AO2
K5SM 201013Z AUTO 22010G18KT 10SM SCT035 SCT048 BKN060 03/M02 A3015 RMK AO2
K5SM 200954Z AUTO 21012G19KT 10SM BKN070 BKN085 02/M02 A3015 RMK AO2
K5SM 200930Z AUTO 21010G17KT 10SM SCT070 02/M03 A3017 RMK AO2
K5SM 200912Z AUTO 21010G18KT 10SM SCT090 02/M03 A3017 RMK AO2
K5SM 200854Z AUTO 21011G19KT 10SM OVC080 02/M03 A3018 RMK AO2
K5SM 200830Z AUTO 22011G19KT 10SM SCT065 BKN080 02/M03 A3019 RMK AO2
K5SM 200812Z AUTO 22010G19KT 10SM OVC065 03/M03 A3019 RMK AO2
K5SM 200754Z AUTO 21012G19KT 10SM BKN065 03/M03 A3020 RMK AO2
K5SM 200730Z AUTO 22012G18KT 10SM CLR 02/M03 A3021 RMK AO2
K5SM 200712Z AUTO 22010G18KT 10SM SCT100 02/M03 A3021 RMK AO2
K5SM 200652Z AUTO 21010G18KT 10SM BKN090 02/M03 A3021 RMK AO2
K5SM 200629Z AUTO 22011G16KT 10SM BKN090 02/M03 A3023 RMK AO2
K5SM 200611Z AUTO 22008G15KT 10SM SCT075 OVC090 02/M03 A3024 RMK AO2
K5SM 200553Z AUTO 21010G17KT 10SM SCT075 BKN090 03/M03 A3025 RMK AO2
K5SM 200530Z AUTO 22010G17KT 10SM SCT100 03/M03 A3025 RMK AO2
K5SM 200512Z AUTO 22009G14KT 10SM SCT100 03/M03 A3026 RMK AO2
K5SM 200451Z AUTO 22008G17KT 180V240 10SM CLR 03/M03 A3026 RMK AO2
K5SM 200433Z AUTO 22011G16KT 10SM SCT090 03/M04 A3027 RMK AO2
K5SM 200411Z AUTO 22011G16KT 10SM SCT090 03/M04 A3027 RMK AO2
K5SM 200351Z AUTO 24009G18KT 10SM BKN090 OVC110 03/M03 A3027 RMK AO2
K5SM 200333Z AUTO 23007G15KT 10SM BKN090 OVC110 04/M03 A3027 RMK AO2
K5SM 200311Z AUTO 24008G18KT 10SM SCT100 BKN120 04/M03 A3027 RMK AO2
K5SM 200253Z AUTO 24008G19KT 210V320 10SM SCT100 04/M03 A3028 RMK AO2
K5SM 200230Z AUTO 23008G17KT 10SM CLR 03/M03 A3028 RMK AO2
K5SM 200212Z AUTO 24007KT 10SM CLR 03/M03 A3028 RMK AO2
K5SM 200153Z AUTO 24005KT 10SM CLR 04/M03 A3029 RMK AO2
K5SM 200129Z AUTO 23007G17KT 190V280 10SM SCT100 04/M04 A3028 RMK AO2 LTG DSNT S
K5SM 200111Z AUTO 24007KT 10SM BKN100 05/M04 A3028 RMK AO2
K5SM 200052Z AUTO 24006KT 10SM SCT110 05/M05 A3028 RMK AO2
K5SM 200029Z AUTO 25005KT 10SM SCT110 05/M05 A3028 RMK AO2
K5SM 200011Z AUTO 24006KT 10SM BKN110 06/M05 A3029 RMK AO2 LTG DSNT S
K5SM 192352Z AUTO 24007KT 10SM BKN110 07/M05 A3029 RMK AO2
K5SM 192329Z AUTO 24007KT 10SM SCT110 08/M06 A3030 RMK AO2
K5SM 192312Z AUTO 22007KT 10SM SCT085 BKN100 10/M05 A3030 RMK AO2
K5SM 192253Z AUTO 23006KT 10SM OVC100 08/M05 A3030 RMK AO2
K5SM 192229Z AUTO 23006KT 10SM BKN100 08/M07 A3031 RMK AO2 LTG DSNT S
K5SM 192211Z AUTO 24008KT 10SM BKN090 10/M07 A3032 RMK AO2
K5SM 192153Z AUTO 24005KT 10SM BKN080 08/M08 A3032 RMK AO2
K5SM 192129Z AUTO 27006KT 10SM CLR 09/M08 A3032 RMK AO2
K5SM 192111Z AUTO 24006KT 10SM SCT090 11/M08 A3032 RMK AO2
K5SM 192052Z AUTO 25006KT 200V010 10SM SCT090 11/M08 A3032 RMK AO2 LTG DSNT S
K5SM 192034Z AUTO 25007KT 200V320 10SM SCT075 11/M08 A3033 RMK AO2
K5SM 192010Z AUTO 30006KT 10SM BKN075 10/M08 A3033 RMK AO2
K5SM 191953Z AUTO 30005KT 10SM BKN075 10/M08 A3034 RMK AO2
K5SM 191930Z AUTO 00000KT 10SM SCT075 10/M08 A3036 RMK AO2 LTG DSNT S
K5SM 191912Z AUTO 00000KT 10SM SCT075 12/M07 A3037 RMK AO2
K5SM 191852Z AUTO 21004KT 10SM CLR 11/M08 A3038 RMK AO2 LTG DSNT S
K5SM 191834Z AUTO 00000KT 10SM CLR 11/M08 A3039 RMK AO2 LTG DSNT SW
K5SM 191811Z AUTO 00000KT 10SM CLR 11/M08 A3039 RMK AO2
K5SM 191754Z AUTO 00000KT 10SM CLR 11/M08 A3040 RMK AO2 LTG DSNT S
K5SM 191730Z AUTO 22007G17KT 190V250 10SM CLR 11/M08 A3040 RMK AO2
K5SM 191712Z AUTO 21011G17KT 10SM CLR 10/M08 A3040 RMK AO2
K5SM 191653Z AUTO 23008KT 10SM CLR 10/M09 A3040 RMK AO2
K5SM 191629Z AUTO 20006G14KT 10SM CLR 08/M11 A3040 RMK AO2
K5SM 191611Z AUTO 21007KT 160V220 10SM SCT075 07/M11 A3041 RMK AO2
K5SM 191551Z AUTO 21007KT 190V250 10SM OVC075 06/M12 A3041 RMK AO2
K5SM 191529Z AUTO 21007KT 10SM BKN075 BKN085 06/M12 A3041 RMK AO2
K5SM 191512Z AUTO 21010G15KT 10SM SCT075 BKN085 06/M13 A3041 RMK AO2
K5SM 191451Z AUTO 21008G16KT 10SM BKN075 06/M13 A3040 RMK AO2
K5SM 191434Z AUTO 20009G15KT 10SM OVC075 06/M13 A3040 RMK AO2
K5SM 191411Z AUTO 21008KT 10SM OVC075 05/M13 A3039 RMK AO2
K5SM 191352Z AUTO 21007G14KT 10SM OVC075 04/M13 A3039 RMK AO2
K5SM 191334Z AUTO 20007KT 10SM BKN075 03/M15 A3039 RMK AO2
K5SM 191312Z AUTO 21008G14KT 10SM CLR 03/M14 A3039 RMK AO2